LFBA/AGF METAR and TAF weather

Enter ICAO airport designator
Station Type Date Time Source
LFBA METAR 2021/10/22 20:00 UTC NOAA

LFBA 222000Z AUTO VRB03KT CAVOK 12/10 Q1024


Station Type Date Time Source
LFBA Decoded METAR 2021/10/22 20:00 UTC NOAA

Agen, France (LFBA) 44-11N 000-36E 60M
Oct 22, 2021 - 04:00 PM EDT / 2021.10.22 2000 UTC
Wind: Variable at 3 MPH (3 KT):0
Visibility: greater than 7 mile(s):0
Temperature: 53 F (12 C)
Dew Point: 50 F (10 C)
Relative Humidity: 87%
Pressure (altimeter): 30.24 in. Hg (1024 hPa)
ob: LFBA 222000Z AUTO VRB03KT CAVOK 12/10 Q1024
cycle: 20

Station Type Date Time Source
LFBA TAF 2014/12/22 20:03 UTC NOAA

TAF
AMD TAF
AMD LFBA 222037Z 2220/2224 12007KT 0400 FG VV///
TEMPO 2220/2224 0100 PROB30
TEMPO 2222/2224 FZFG

Example: see airport list